Time;durP1;ratioP1;P1;durP2;ratioP2;P2;SDS_P1;SDS_P2;PMS_P1;PMS_P2;Temp;Humidity;BMP_temperature;BMP_pressure;BME280_temperature;BME280_humidity;BME280_pressure;Samples;Min_cycle;Max_cycle;Signal;HPM_P1;HPM_P2
2023/06/26 00:01:11;;;;;;;20.40;9.27;;;;;;;22.91;100.00;101086.56;5105541;28;20066;-68
2023/06/26 00:03:36;;;;;;;19.77;9.25;;;;;;;22.89;100.00;101080.38;5103822;28;20020;-70
2023/06/26 00:06:02;;;;;;;20.40;9.50;;;;;;;22.86;100.00;101074.22;5106144;28;20035;-69
2023/06/26 00:08:28;;;;;;;20.00;9.30;;;;;;;22.84;100.00;101079.69;5103413;28;20099;-70
2023/06/26 00:10:53;;;;;;;19.65;9.88;;;;;;;22.84;100.00;101076.13;5106026;28;20031;-70
2023/06/26 00:13:19;;;;;;;20.15;9.70;;;;;;;22.79;100.00;101079.00;5103746;28;20111;-70
2023/06/26 00:15:45;;;;;;;19.20;9.35;;;;;;;22.72;100.00;101074.84;5104971;28;20056;-70
2023/06/26 00:18:10;;;;;;;19.73;9.90;;;;;;;22.69;100.00;101083.00;5104849;28;20038;-68
2023/06/26 00:20:36;;;;;;;20.25;9.60;;;;;;;22.62;100.00;101075.19;5103435;28;20593;-70
2023/06/26 00:23:03;;;;;;;20.73;9.63;;;;;;;22.69;100.00;101069.53;5106320;28;20031;-68
2023/06/26 00:25:29;;;;;;;20.15;9.85;;;;;;;22.57;100.00;101070.94;5102421;28;20135;-70
2023/06/26 00:27:54;;;;;;;20.23;9.63;;;;;;;22.52;100.00;101071.16;5105791;28;20114;-68
2023/06/26 00:30:20;;;;;;;20.25;10.18;;;;;;;22.48;100.00;101082.13;5103751;28;20034;-69
2023/06/26 00:32:45;;;;;;;19.52;9.52;;;;;;;22.44;100.00;101071.47;5104574;28;20036;-66
2023/06/26 00:35:10;;;;;;;20.40;10.20;;;;;;;22.35;100.00;101076.38;5104517;28;20023;-65
2023/06/26 00:37:36;;;;;;;19.95;10.07;;;;;;;22.31;100.00;101069.31;5103241;28;20112;-62
2023/06/26 00:40:01;;;;;;;21.55;10.48;;;;;;;22.27;100.00;101073.97;5105691;28;20512;-65
2023/06/26 00:42:27;;;;;;;20.10;10.20;;;;;;;22.25;100.00;101071.34;5102483;28;20054;-61
2023/06/26 00:44:52;;;;;;;20.90;10.75;;;;;;;22.13;100.00;101071.81;5105346;28;20027;-67
2023/06/26 00:47:18;;;;;;;20.30;11.02;;;;;;;22.14;100.00;101078.97;5103531;28;20462;-65
2023/06/26 00:49:44;;;;;;;20.45;10.57;;;;;;;21.94;100.00;101083.34;5104078;28;20031;-61
2023/06/26 00:52:09;;;;;;;20.60;11.20;;;;;;;21.91;100.00;101086.13;5104390;28;20031;-65
2023/06/26 00:54:34;;;;;;;20.13;11.00;;;;;;;21.82;100.00;101083.81;5102713;28;20030;-66
2023/06/26 00:57:00;;;;;;;20.60;11.20;;;;;;;21.74;100.00;101078.72;5105719;28;20383;-65
2023/06/26 00:59:25;;;;;;;22.48;11.60;;;;;;;21.66;100.00;101077.28;5102029;28;20077;-63
2023/06/26 01:01:51;;;;;;;21.38;12.10;;;;;;;21.59;100.00;101085.56;5104797;28;20062;-67
2023/06/26 01:04:19;;;;;;;22.00;11.63;;;;;;;21.56;100.00;101088.34;5103436;28;20024;-67
2023/06/26 01:06:49;;;;;;;22.05;11.70;;;;;;;21.46;100.00;101086.91;5103668;28;20430;-61
2023/06/26 01:09:18;;;;;;;21.52;11.20;;;;;;;21.49;100.00;101092.19;5103410;28;20043;-66
2023/06/26 01:11:43;;;;;;;21.70;11.45;;;;;;;21.48;100.00;101093.13;5103539;28;20043;-67
2023/06/26 01:14:09;;;;;;;21.42;11.50;;;;;;;21.50;100.00;101093.06;5104156;28;20062;-66
2023/06/26 01:16:35;;;;;;;20.67;11.18;;;;;;;21.50;100.00;101095.75;5102311;28;20386;-71
2023/06/26 01:19:01;;;;;;;21.35;10.65;;;;;;;21.47;100.00;101094.06;5105199;28;20439;-70
2023/06/26 01:21:32;;;;;;;20.88;10.45;;;;;;;21.47;100.00;101094.06;5101539;28;20059;-70
2023/06/26 01:24:20;;;;;;;20.52;10.77;;;;;;;21.30;100.00;101096.50;5097334;28;20426;-71
2023/06/26 01:26:48;;;;;;;20.67;10.18;;;;;;;21.28;100.00;101104.63;5101886;28;20036;-71
2023/06/26 01:29:16;;;;;;;20.92;10.43;;;;;;;21.22;100.00;101110.22;5103504;28;20038;-71
2023/06/26 01:31:43;;;;;;;20.95;10.27;;;;;;;21.11;100.00;101107.91;5103040;28;20028;-70
2023/06/26 01:34:09;;;;;;;20.20;10.10;;;;;;;20.98;100.00;101110.13;5103893;28;20023;-70
2023/06/26 01:36:34;;;;;;;20.42;10.32;;;;;;;21.01;100.00;101110.06;5101985;28;20031;-70
2023/06/26 01:39:00;;;;;;;20.95;10.00;;;;;;;20.92;100.00;101101.44;5105292;28;20478;-70
2023/06/26 01:41:25;;;;;;;20.20;9.57;;;;;;;20.88;100.00;101101.53;5101409;28;20085;-71
2023/06/26 01:44:06;;;;;;;20.60;10.15;;;;;;;20.84;100.00;101116.00;5104040;28;20034;-71
2023/06/26 01:46:56;;;;;;;21.30;9.73;;;;;;;20.78;100.00;101123.38;5097966;28;20036;-71
2023/06/26 01:49:31;;;;;;;19.52;9.30;;;;;;;20.72;100.00;101128.03;5103419;28;20089;-70
2023/06/26 01:52:34;;;;;;;21.50;9.60;;;;;;;20.84;100.00;101121.38;5101471;28;20428;-71
2023/06/26 01:55:21;;;;;;;20.83;9.48;;;;;;;20.70;100.00;101134.38;5101369;28;20177;-70
2023/06/26 01:57:47;;;;;;;19.88;9.02;;;;;;;20.67;100.00;101137.19;5101290;28;20475;-70
2023/06/26 02:00:17;;;;;;;20.10;9.10;;;;;;;20.68;100.00;101138.94;5103329;28;20044;-71
2023/06/26 02:02:43;;;;;;;20.10;8.60;;;;;;;20.54;100.00;101139.34;5102473;28;20031;-71
2023/06/26 02:05:08;;;;;;;20.23;8.82;;;;;;;20.57;100.00;101143.75;5103526;28;20035;-71
2023/06/26 02:07:34;;;;;;;20.25;7.95;;;;;;;20.44;100.00;101138.75;5101418;28;20027;-70
2023/06/26 02:09:59;;;;;;;20.40;7.35;;;;;;;20.32;100.00;101139.16;5104495;28;20478;-69
2023/06/26 02:12:25;;;;;;;19.63;7.57;;;;;;;20.21;100.00;101134.13;5101287;28;20109;-70
2023/06/26 02:14:51;;;;;;;18.70;6.90;;;;;;;20.20;100.00;101133.25;5103686;28;20050;-69
2023/06/26 02:17:16;;;;;;;19.20;7.22;;;;;;;20.13;100.00;101134.38;5102655;28;20054;-69
2023/06/26 02:19:47;;;;;;;20.98;6.97;;;;;;;20.08;100.00;101132.75;5102369;28;20101;-65
2023/06/26 02:22:16;;;;;;;19.08;7.22;;;;;;;20.04;100.00;101134.66;5103116;28;20032;-69
2023/06/26 02:24:42;;;;;;;19.02;6.85;;;;;;;19.95;100.00;101129.56;5101906;28;20142;-67
2023/06/26 02:27:08;;;;;;;19.60;7.10;;;;;;;19.86;100.00;101133.41;5103577;28;20035;-67
2023/06/26 02:29:33;;;;;;;20.10;6.68;;;;;;;19.78;100.00;101135.41;5101079;28;20032;-68
2023/06/26 02:31:58;;;;;;;17.80;6.47;;;;;;;19.77;100.00;101142.56;5104509;28;20055;-69
2023/06/26 02:34:24;;;;;;;19.13;6.63;;;;;;;19.72;100.00;101138.25;5101247;28;20471;-69
2023/06/26 02:36:49;;;;;;;19.77;6.72;;;;;;;19.66;100.00;101144.69;5103389;28;20036;-68
2023/06/26 02:39:14;;;;;;;19.13;7.20;;;;;;;19.60;100.00;101150.22;5102394;28;20036;-68
2023/06/26 02:41:40;;;;;;;19.60;6.43;;;;;;;19.54;100.00;101147.72;5083426;28;20032;-63
2023/06/26 02:44:06;;;;;;;19.05;6.60;;;;;;;19.59;100.00;101145.78;5103798;28;20027;-69
2023/06/26 02:46:32;;;;;;;18.42;6.30;;;;;;;19.52;100.00;101153.13;5100916;28;20036;-66
2023/06/26 02:48:57;;;;;;;19.20;6.07;;;;;;;19.58;100.00;101149.38;5104338;28;20394;-68
2023/06/26 02:51:22;;;;;;;20.05;6.28;;;;;;;19.52;100.00;101154.00;5101200;28;20036;-68
2023/06/26 02:53:48;;;;;;;19.27;6.07;;;;;;;19.44;100.00;101166.75;5102707;28;20048;-69
2023/06/26 02:56:13;;;;;;;18.52;6.03;;;;;;;19.37;100.00;101170.50;5102747;28;20040;-68
2023/06/26 02:58:38;;;;;;;19.35;6.25;;;;;;;19.29;100.00;101172.50;5101459;28;20028;-69
2023/06/26 03:01:04;;;;;;;20.15;6.43;;;;;;;19.26;100.00;101178.81;5103785;28;20030;-65
2023/06/26 03:03:29;;;;;;;19.08;6.40;;;;;;;19.24;100.00;101177.13;5100692;28;20032;-68
2023/06/26 03:05:55;;;;;;;18.55;6.00;;;;;;;19.23;100.00;101183.41;5103450;28;20031;-69
2023/06/26 03:08:20;;;;;;;19.10;6.43;;;;;;;19.16;100.00;101182.66;5101542;28;20068;-69
2023/06/26 03:10:45;;;;;;;19.95;6.18;;;;;;;19.10;100.00;101183.69;5104452;28;20051;-68
2023/06/26 03:13:11;;;;;;;18.80;6.20;;;;;;;19.04;100.00;101188.34;5106413;28;20028;-68
2023/06/26 03:15:36;;;;;;;19.58;6.13;;;;;;;19.05;100.00;101177.59;5104395;28;20468;-65
2023/06/26 03:18:01;;;;;;;19.88;6.60;;;;;;;19.01;100.00;101185.75;5107702;28;20090;-67
2023/06/26 03:20:27;;;;;;;18.63;6.30;;;;;;;18.98;100.00;101186.72;5104081;28;20497;-69
2023/06/26 03:22:52;;;;;;;18.42;6.10;;;;;;;18.87;100.00;101189.63;5106722;28;20503;-70
2023/06/26 03:25:17;;;;;;;20.48;6.60;;;;;;;18.94;100.00;101187.69;5104841;28;20443;-70
2023/06/26 03:27:43;;;;;;;19.13;6.72;;;;;;;18.80;100.00;101183.53;5105212;28;20039;-70
2023/06/26 03:30:09;;;;;;;20.23;6.57;;;;;;;18.80;100.00;101186.22;5106659;28;20028;-71
2023/06/26 03:32:34;;;;;;;19.67;6.45;;;;;;;18.75;100.00;101188.13;5103844;28;20055;-70
2023/06/26 03:35:03;;;;;;;20.85;6.57;;;;;;;18.80;100.00;101186.22;5107149;28;20103;-70
2023/06/26 03:37:28;;;;;;;20.65;6.53;;;;;;;18.81;100.00;101182.63;5099555;28;20054;-70
2023/06/26 03:39:53;;;;;;;20.50;6.63;;;;;;;18.79;100.00;101179.09;5106370;28;20404;-70
2023/06/26 03:42:19;;;;;;;21.38;6.82;;;;;;;18.73;100.00;101189.97;5104973;28;20028;-70
2023/06/26 03:44:44;;;;;;;19.90;6.50;;;;;;;18.72;100.00;101188.19;5105360;28;20459;-70
2023/06/26 03:47:09;;;;;;;18.80;6.50;;;;;;;18.71;100.00;101183.78;5106022;28;20028;-70
2023/06/26 03:49:35;;;;;;;20.20;6.97;;;;;;;18.68;100.00;101181.13;5103602;28;20428;-70
2023/06/26 03:55:38;;;;;;;20.77;6.97;;;;;;;18.66;100.00;101203.53;5105214;28;20174;-70
2023/06/26 03:58:04;;;;;;;21.23;7.13;;;;;;;18.63;100.00;101207.16;5099520;28;20025;-70
2023/06/26 04:00:29;;;;;;;20.65;6.72;;;;;;;18.55;100.00;101207.34;5106966;28;20034;-70
2023/06/26 04:02:55;;;;;;;22.35;7.03;;;;;;;18.56;100.00;101203.72;5103554;28;20023;-70
2023/06/26 04:05:20;;;;;;;21.38;7.30;;;;;;;18.61;100.00;101212.56;5105336;28;20032;-70
2023/06/26 04:07:45;;;;;;;21.58;7.10;;;;;;;18.59;100.00;101219.72;5104931;28;20418;-70
2023/06/26 04:10:11;;;;;;;22.05;7.10;;;;;;;18.64;100.00;101223.19;5103966;28;20032;-70
2023/06/26 04:12:36;;;;;;;22.50;6.82;;;;;;;18.64;100.00;101230.34;5105917;28;20088;-68
2023/06/26 04:15:02;;;;;;;22.70;7.38;;;;;;;18.64;100.00;101228.53;5103138;28;20036;-70
2023/06/26 04:17:27;;;;;;;21.58;7.60;;;;;;;18.66;100.00;101227.63;5106461;28;20035;-70
2023/06/26 04:19:53;;;;;;;22.63;7.78;;;;;;;18.66;100.00;101233.84;5085336;28;20081;-70
2023/06/26 04:22:18;;;;;;;22.80;7.40;;;;;;;18.66;100.00;101236.53;5104672;28;20028;-70
2023/06/26 04:24:45;;;;;;;21.70;7.60;;;;;;;18.70;100.00;101242.69;5104496;28;20047;-70
2023/06/26 04:27:13;;;;;;;22.23;7.57;;;;;;;18.78;100.00;101235.38;5103634;28;20471;-61
2023/06/26 04:29:39;;;;;;;21.52;7.68;;;;;;;18.85;100.00;101230.75;5105823;28;20420;-66
2023/06/26 04:32:04;;;;;;;23.10;8.02;;;;;;;18.92;100.00;101240.44;5102448;28;20020;-60
2023/06/26 04:34:32;;;;;;;23.60;7.75;;;;;;;18.93;100.00;101237.72;5106203;28;20039;-67
2023/06/26 04:36:57;;;;;;;24.77;7.95;;;;;;;18.94;100.00;101246.63;5102789;28;20031;-64
2023/06/26 04:39:23;;;;;;;21.98;7.13;;;;;;;18.98;100.00;101242.97;5105235;28;20024;-63
2023/06/26 05:12:37;;;;;;;23.77;7.55;;;;;;;18.88;100.00;101282.47;3313464;28;20052;-70
2023/06/26 05:17:28;;;;;;;25.07;8.07;;;;;;;18.76;100.00;101288.97;4967934;28;20022;-70
2023/06/26 05:19:53;;;;;;;24.33;7.80;;;;;;;18.92;100.00;101296.69;4982543;28;20041;-69
2023/06/26 05:22:20;;;;;;;23.52;7.50;;;;;;;18.93;100.00;101296.66;4985716;28;20050;-59
2023/06/26 05:24:47;;;;;;;24.48;7.63;;;;;;;18.95;100.00;101299.28;4982517;28;20045;-60
2023/06/26 05:27:20;;;;;;;24.73;7.57;;;;;;;18.92;100.00;101300.25;4984983;28;20034;-61
2023/06/26 05:29:46;;;;;;;24.40;7.07;;;;;;;19.01;100.00;101304.50;4982273;28;20031;-65
2023/06/26 05:32:17;;;;;;;25.67;6.78;;;;;;;19.13;100.00;101312.25;4984552;28;20041;-60
2023/06/26 05:34:45;;;;;;;23.73;6.93;;;;;;;19.14;100.00;101300.59;4982509;28;20027;-60
2023/06/26 05:37:14;;;;;;;22.05;6.72;;;;;;;19.09;100.00;101313.25;4991209;28;20026;-60
2023/06/26 05:39:40;;;;;;;23.02;6.80;;;;;;;19.16;100.00;101300.56;4993658;28;20034;-60
2023/06/26 05:42:06;;;;;;;23.17;6.78;;;;;;;19.11;100.00;101307.84;4993627;28;20385;-61
2023/06/26 05:44:31;;;;;;;24.00;6.40;;;;;;;18.98;100.00;101310.81;4993478;28;20396;-62
2023/06/26 05:46:56;;;;;;;24.15;7.20;;;;;;;18.92;100.00;101313.63;4993758;28;20038;-62
2023/06/26 05:49:22;;;;;;;23.25;6.63;;;;;;;18.90;100.00;101326.19;4993085;28;20042;-62
2023/06/26 05:51:47;;;;;;;22.83;6.57;;;;;;;18.96;100.00;101322.47;4993274;28;20113;-61
2023/06/26 05:54:13;;;;;;;22.40;6.40;;;;;;;18.99;100.00;101330.44;4993753;28;20081;-63
2023/06/26 05:56:39;;;;;;;25.08;6.88;;;;;;;18.98;100.00;101324.19;4993138;28;20049;-62
2023/06/26 05:59:05;;;;;;;21.10;6.25;;;;;;;19.04;100.00;101333.03;4993150;28;20030;-62
2023/06/26 06:01:33;;;;;;;22.02;6.25;;;;;;;19.14;100.00;101342.59;4993438;28;20121;-63
2023/06/26 06:03:58;;;;;;;22.20;6.20;;;;;;;19.18;100.00;101346.97;4993187;28;20077;-61
2023/06/26 06:06:24;;;;;;;24.13;6.18;;;;;;;19.20;100.00;101345.13;4993027;28;20026;-60
2023/06/26 06:08:49;;;;;;;20.73;5.57;;;;;;;19.22;100.00;101348.69;4993035;28;20465;-63
2023/06/26 06:11:15;;;;;;;23.58;5.88;;;;;;;19.28;100.00;101352.97;4992989;28;20492;-63
2023/06/26 06:13:40;;;;;;;22.08;5.65;;;;;;;19.22;100.00;101350.44;5001347;28;20053;-60
2023/06/26 06:16:06;;;;;;;24.77;5.47;;;;;;;19.29;100.00;101347.56;5004778;28;20030;-60
2023/06/26 06:18:31;;;;;;;21.13;5.20;;;;;;;19.37;100.00;101355.47;5003151;28;20022;-70
2023/06/26 06:20:56;;;;;;;19.42;5.00;;;;;;;19.36;100.00;101366.22;5005369;28;20040;-60
2023/06/26 06:23:22;;;;;;;21.13;5.10;;;;;;;19.44;100.00;101361.53;5005848;28;20061;-61
2023/06/26 06:25:47;;;;;;;22.13;4.70;;;;;;;19.49;100.00;101367.69;5000986;28;20042;-61
2023/06/26 06:28:16;;;;;;;20.10;4.80;;;;;;;19.51;100.00;101366.72;5004408;28;20026;-62
2023/06/26 06:30:41;;;;;;;19.45;4.72;;;;;;;19.59;100.00;101368.34;5004556;28;20527;-65
2023/06/26 06:33:06;;;;;;;19.63;5.30;;;;;;;19.65;100.00;101370.84;5001765;28;20027;-61
2023/06/26 06:35:32;;;;;;;18.85;4.90;;;;;;;19.73;100.00;101365.28;4985320;28;20085;-67
2023/06/26 06:37:57;;;;;;;19.75;4.80;;;;;;;19.74;100.00;101369.75;5004473;28;20093;-67
2023/06/26 06:40:22;;;;;;;20.88;5.25;;;;;;;19.78;100.00;101372.34;5005339;28;20048;-61
2023/06/26 06:42:48;;;;;;;19.80;4.80;;;;;;;19.79;100.00;101382.16;5012526;28;20030;-60
2023/06/26 06:45:13;;;;;;;18.45;4.50;;;;;;;19.81;100.00;101385.66;5015036;28;20092;-61
2023/06/26 06:47:38;;;;;;;19.25;4.65;;;;;;;19.89;100.00;101395.31;5016115;28;20160;-65
2023/06/26 06:50:10;;;;;;;18.67;4.70;;;;;;;20.00;100.00;101394.09;5016222;28;20041;-66
2023/06/26 06:52:38;;;;;;;17.27;4.80;;;;;;;20.08;100.00;101396.63;5016042;28;20026;-60
2023/06/26 06:55:08;;;;;;;18.80;4.70;;;;;;;20.24;100.00;101398.88;5015860;28;20370;-64
2023/06/26 06:57:38;;;;;;;18.95;4.32;;;;;;;20.31;100.00;101395.97;5016107;28;20471;-60
2023/06/26 07:00:05;;;;;;;18.70;4.47;;;;;;;20.37;100.00;101395.81;5016275;28;20033;-61
2023/06/26 07:02:30;;;;;;;19.00;4.45;;;;;;;20.37;100.00;101411.03;5015985;28;20392;-60
2023/06/26 07:04:55;;;;;;;18.50;4.53;;;;;;;20.65;100.00;101424.56;5016151;28;20034;-68
2023/06/26 07:07:21;;;;;;;19.45;4.65;;;;;;;20.92;100.00;101418.47;5015638;28;20500;-60
2023/06/26 07:09:46;;;;;;;18.73;4.22;;;;;;;20.93;100.00;101421.09;5015481;28;20030;-65
2023/06/26 07:12:11;;;;;;;19.08;4.85;;;;;;;20.85;100.00;101439.25;5018570;28;20040;-60
2023/06/26 07:14:37;;;;;;;16.20;4.32;;;;;;;20.84;100.00;101426.78;4982811;28;20059;-62
2023/06/26 07:17:02;;;;;;;17.60;4.30;;;;;;;21.00;100.00;101419.09;4995929;28;20031;-61
2023/06/26 07:19:28;;;;;;;18.05;4.53;;;;;;;21.15;100.00;101428.53;4996235;28;20117;-65
2023/06/26 07:21:53;;;;;;;18.35;4.88;;;;;;;20.98;100.00;101429.91;4995010;28;20069;-69
2023/06/26 07:24:18;;;;;;;17.48;4.28;;;;;;;20.98;100.00;101447.84;4995968;28;20069;-69
2023/06/26 07:26:44;;;;;;;18.30;4.40;;;;;;;20.97;100.00;101449.66;4995989;28;20117;-69
2023/06/26 07:29:09;;;;;;;18.33;4.40;;;;;;;20.84;100.00;101449.13;4973547;28;20030;-69
2023/06/26 07:31:34;;;;;;;17.35;4.22;;;;;;;20.84;100.00;101443.75;4984683;28;20026;-68
2023/06/26 07:34:00;;;;;;;17.13;3.88;;;;;;;21.09;100.00;101451.09;4987192;28;20436;-69
2023/06/26 07:36:25;;;;;;;17.73;4.40;;;;;;;21.29;100.00;101461.25;4985722;28;20504;-70
2023/06/26 07:38:51;;;;;;;17.33;4.05;;;;;;;21.37;100.00;101459.19;4985902;28;20031;-68
2023/06/26 07:41:16;;;;;;;15.32;4.35;;;;;;;20.95;100.00;101469.44;4986816;28;20053;-67
2023/06/26 07:43:41;;;;;;;17.60;4.60;;;;;;;21.12;100.00;101474.31;4984578;28;20030;-68
2023/06/26 07:46:06;;;;;;;17.70;4.65;;;;;;;21.28;100.00;101469.38;4986688;28;20073;-70
2023/06/26 07:48:32;;;;;;;15.57;4.50;;;;;;;21.42;100.00;101469.78;4984093;28;20078;-69
2023/06/26 07:50:57;;;;;;;14.18;4.05;;;;;;;21.33;100.00;101470.94;4987553;28;20045;-70
2023/06/26 07:53:22;;;;;;;16.77;4.10;;;;;;;21.27;100.00;101483.72;4984962;28;20106;-70
2023/06/26 07:55:48;;;;;;;13.52;3.72;;;;;;;21.39;100.00;101480.63;4985302;28;20035;-70
2023/06/26 07:58:13;;;;;;;14.60;3.60;;;;;;;21.56;100.00;101486.41;4986869;28;20137;-70
2023/06/26 08:00:40;;;;;;;13.80;3.72;;;;;;;21.51;100.00;101485.69;4995447;28;20026;-70
2023/06/26 08:03:05;;;;;;;16.58;3.95;;;;;;;21.68;100.00;101492.34;4995195;28;20429;-69
2023/06/26 08:05:30;;;;;;;14.60;3.80;;;;;;;21.81;100.00;101488.31;4995047;28;20030;-71
2023/06/26 08:07:56;;;;;;;16.88;3.72;;;;;;;22.08;100.00;101482.97;4995472;28;20176;-70
2023/06/26 08:10:21;;;;;;;16.55;3.30;;;;;;;22.01;100.00;101497.56;4995042;28;20478;-65
2023/06/26 08:12:48;;;;;;;10.77;3.40;;;;;;;21.74;100.00;101500.19;4995289;28;20113;-61
2023/06/26 08:15:14;;;;;;;13.93;3.22;;;;;;;21.51;96.67;101507.19;4962138;28;20062;-69
2023/06/26 08:17:39;;;;;;;11.93;3.10;;;;;;;21.22;93.43;101502.69;4995043;28;20037;-67
2023/06/26 08:20:07;;;;;;;12.95;3.03;;;;;;;21.13;94.23;101503.84;4995174;28;20591;-65
2023/06/26 08:22:33;;;;;;;13.27;3.20;;;;;;;21.01;94.94;101507.75;4995309;28;20034;-69
2023/06/26 08:24:58;;;;;;;15.02;3.03;;;;;;;20.99;93.73;101514.09;4995071;28;20426;-69
2023/06/26 08:27:23;;;;;;;10.73;2.90;;;;;;;20.92;95.16;101513.38;4995067;28;20026;-69
2023/06/26 08:29:49;;;;;;;14.13;2.85;;;;;;;20.95;89.00;101515.97;4994841;28;20117;-62
2023/06/26 08:32:14;;;;;;;10.48;2.70;;;;;;;21.15;86.51;101507.34;4994780;28;20031;-70
2023/06/26 08:34:39;;;;;;;9.98;2.60;;;;;;;21.40;87.99;101506.63;4995169;28;20367;-67
2023/06/26 08:37:05;;;;;;;12.80;2.70;;;;;;;21.61;79.57;101517.66;4994917;28;20405;-70
2023/06/26 08:39:31;;;;;;;9.13;2.65;;;;;;;21.58;79.71;101510.56;4994612;28;20084;-63
2023/06/26 08:41:56;;;;;;;12.20;2.55;;;;;;;21.50;73.85;101508.09;4994759;28;20037;-69
2023/06/26 08:44:24;;;;;;;10.18;2.60;;;;;;;21.46;76.33;101510.94;4994389;28;20549;-70
2023/06/26 08:46:51;;;;;;;13.43;2.70;;;;;;;21.83;82.12;101529.53;4994418;28;20031;-69
2023/06/26 08:49:40;;;;;;;13.05;2.80;;;;;;;21.73;75.21;101526.22;4994587;28;20019;-68
2023/06/26 08:52:35;;;;;;;11.65;2.70;;;;;;;21.91;77.78;101513.13;4994368;28;20027;-69
2023/06/26 08:55:06;;;;;;;11.27;2.55;;;;;;;21.93;77.36;101532.78;4993249;28;20388;-69
2023/06/26 08:57:32;;;;;;;11.48;2.70;;;;;;;22.14;77.82;101531.22;4994432;28;20539;-65
2023/06/26 08:59:58;;;;;;;12.10;2.72;;;;;;;22.51;76.40;101516.50;4994524;28;20034;-67
2023/06/26 09:02:23;;;;;;;11.68;2.70;;;;;;;22.40;75.57;101530.34;4994210;28;20038;-68
2023/06/26 09:04:50;;;;;;;13.25;2.70;;;;;;;22.58;75.41;101534.22;4994188;28;20034;-69
2023/06/26 09:07:16;;;;;;;12.50;2.63;;;;;;;22.73;70.89;101535.50;4993589;28;20030;-65
2023/06/26 09:09:42;;;;;;;12.35;2.80;;;;;;;22.45;70.70;101547.25;4990042;28;20088;-70
2023/06/26 09:12:09;;;;;;;14.32;2.90;;;;;;;22.46;72.04;101531.97;4994217;28;20109;-70
2023/06/26 09:14:43;;;;;;;13.27;3.00;;;;;;;22.77;72.21;101547.03;5007572;28;20570;-69
2023/06/26 09:17:08;;;;;;;12.50;2.55;;;;;;;23.16;71.22;101543.88;5013562;28;20038;-68
2023/06/26 09:19:37;;;;;;;12.98;3.00;;;;;;;23.21;75.15;101554.47;5013688;28;20388;-69
2023/06/26 09:22:02;;;;;;;13.05;2.67;;;;;;;23.19;70.02;101551.84;5013516;28;20033;-70
2023/06/26 09:24:27;;;;;;;10.27;2.50;;;;;;;23.17;67.57;101539.34;5013340;28;20026;-70
2023/06/26 09:26:55;;;;;;;13.05;2.72;;;;;;;23.15;68.43;101559.19;5013422;28;20037;-67
2023/06/26 09:29:20;;;;;;;14.15;2.60;;;;;;;22.61;64.48;101538.63;5010803;28;20084;-61
2023/06/26 09:31:46;;;;;;;10.45;2.60;;;;;;;22.50;64.42;101552.47;5007140;28;20424;-64
2023/06/26 09:34:11;;;;;;;7.20;2.33;;;;;;;22.72;62.27;101555.28;5014001;28;20113;-66
2023/06/26 09:36:36;;;;;;;10.48;2.50;;;;;;;22.56;60.80;101567.56;5010687;28;20465;-70
2023/06/26 09:39:10;;;;;;;12.05;2.40;;;;;;;22.99;62.72;101576.78;5012876;28;20026;-66
2023/06/26 09:41:40;;;;;;;11.73;2.60;;;;;;;23.14;61.00;101567.31;5013827;28;20025;-67
2023/06/26 09:44:07;;;;;;;11.40;2.47;;;;;;;23.29;61.45;101576.66;5017393;28;20071;-66
2023/06/26 09:46:33;;;;;;;10.80;2.47;;;;;;;23.21;61.53;101574.25;5014245;28;20017;-69
2023/06/26 09:49:06;;;;;;;7.85;2.30;;;;;;;22.93;59.37;101585.09;5009299;28;20034;-69
2023/06/26 09:51:35;;;;;;;7.70;2.40;;;;;;;23.33;60.02;101589.97;5014494;28;20022;-62
2023/06/26 09:54:02;;;;;;;10.73;2.30;;;;;;;23.21;57.42;101597.63;5013032;28;20034;-73
2023/06/26 09:56:28;;;;;;;10.90;2.50;;;;;;;23.17;60.43;101595.97;5013229;28;20377;-61
2023/06/26 09:58:59;;;;;;;9.57;2.30;;;;;;;23.12;56.47;101601.53;5014625;28;20397;-67
2023/06/26 10:01:25;;;;;;;10.80;2.35;;;;;;;23.27;56.37;101600.97;5016253;28;20034;-60
2023/06/26 10:03:50;;;;;;;10.95;2.40;;;;;;;23.41;52.90;101581.56;5012742;28;20032;-65
2023/06/26 10:06:21;;;;;;;10.93;2.30;;;;;;;23.85;53.14;101583.47;5012876;28;20477;-71
2023/06/26 10:08:47;;;;;;;7.85;2.28;;;;;;;24.21;52.92;101599.16;5012783;28;20037;-65
2023/06/26 10:11:18;;;;;;;10.43;2.40;;;;;;;25.05;49.69;101601.94;5012983;28;20042;-63
2023/06/26 10:13:47;;;;;;;9.23;2.38;;;;;;;25.44;47.77;101605.63;5011989;28;20405;-67
2023/06/26 10:16:17;;;;;;;6.63;2.20;;;;;;;26.20;44.42;101601.13;5012937;28;20088;-68
2023/06/26 10:18:43;;;;;;;8.90;2.00;;;;;;;25.71;44.35;101611.59;5013190;28;20064;-65
2023/06/26 10:21:12;;;;;;;11.10;2.50;;;;;;;25.68;44.10;101609.91;5017006;28;20445;-61
2023/06/26 10:23:40;;;;;;;11.05;2.20;;;;;;;26.21;41.29;101616.44;5016895;28;20058;-62
2023/06/26 10:26:06;;;;;;;9.63;2.15;;;;;;;26.54;40.15;101620.25;5016227;28;20030;-66
2023/06/26 10:28:34;;;;;;;8.00;2.10;;;;;;;26.77;40.31;101619.97;5016662;28;20487;-62
2023/06/26 10:31:03;;;;;;;8.18;2.10;;;;;;;27.55;38.98;101614.06;5016818;28;20100;-68
2023/06/26 10:33:29;;;;;;;8.27;2.00;;;;;;;26.49;38.81;101625.91;5016496;28;20096;-66
2023/06/26 10:36:13;;;;;;;10.55;2.20;;;;;;;26.89;39.99;101617.56;5016456;28;20113;-67
2023/06/26 10:38:51;;;;;;;8.50;2.05;;;;;;;27.78;37.98;101612.75;5016434;28;20100;-65
2023/06/26 10:41:21;;;;;;;8.70;2.20;;;;;;;28.60;36.76;101627.13;5016714;28;20021;-65
2023/06/26 10:43:49;;;;;;;5.95;2.00;;;;;;;28.86;33.49;101625.59;5016532;28;20025;-65
2023/06/26 10:46:19;;;;;;;4.38;1.90;;;;;;;29.03;33.80;101629.97;5016246;28;20042;-67
2023/06/26 10:49:00;;;;;;;8.02;2.10;;;;;;;29.58;34.94;101640.25;5016315;28;20054;-67
2023/06/26 10:51:29;;;;;;;10.67;2.10;;;;;;;28.86;34.50;101639.19;5013379;28;20029;-62
2023/06/26 10:53:58;;;;;;;10.45;2.10;;;;;;;27.98;34.85;101646.97;5016652;28;20384;-66
2023/06/26 10:56:43;;;;;;;8.90;2.10;;;;;;;28.20;35.48;101623.16;5016131;28;20037;-63
2023/06/26 10:59:19;;;;;;;10.30;2.17;;;;;;;28.30;36.33;101627.09;5014759;28;20026;-65
2023/06/26 11:01:53;;;;;;;9.20;2.22;;;;;;;29.13;35.21;101627.56;5016278;28;20029;-68
2023/06/26 11:04:44;;;;;;;6.00;2.03;;;;;;;29.36;35.07;101630.75;5015903;28;20037;-64
2023/06/26 11:07:19;;;;;;;8.27;2.20;;;;;;;28.19;36.02;101649.44;5015936;28;20457;-62
2023/06/26 11:09:57;;;;;;;9.07;2.20;;;;;;;28.50;34.46;101653.97;5015871;28;20061;-64
2023/06/26 11:12:47;;;;;;;10.98;2.00;;;;;;;28.60;33.87;101646.16;5012675;28;20032;-67
2023/06/26 11:15:19;;;;;;;8.73;2.20;;;;;;;28.33;34.82;101641.38;5014830;28;20050;-63
2023/06/26 11:17:44;;;;;;;10.35;2.17;;;;;;;28.38;34.98;101653.81;5015987;28;20045;-68
2023/06/26 11:20:12;;;;;;;7.25;2.17;;;;;;;28.07;34.37;101653.72;5015765;28;20391;-68
2023/06/26 11:22:39;;;;;;;8.63;2.10;;;;;;;27.98;34.50;101649.69;5015594;28;20153;-62
2023/06/26 11:25:05;;;;;;;10.77;2.30;;;;;;;28.18;34.75;101653.13;5015746;28;20057;-66
2023/06/26 11:27:36;;;;;;;10.60;2.20;;;;;;;27.50;35.21;101662.28;5015541;28;20466;-67
2023/06/26 11:30:02;;;;;;;7.97;2.20;;;;;;;27.47;35.02;101662.47;5015130;28;20036;-68
2023/06/26 11:32:30;;;;;;;8.32;2.10;;;;;;;28.10;33.82;101664.41;5015212;28;20022;-67
2023/06/26 11:34:55;;;;;;;7.97;2.20;;;;;;;28.35;33.77;101680.22;5015366;28;20110;-67
2023/06/26 11:37:21;;;;;;;9.32;2.20;;;;;;;27.83;33.82;101665.00;5015516;28;20062;-67
2023/06/26 11:39:46;;;;;;;5.85;2.08;;;;;;;27.56;35.33;101669.22;5015554;28;20042;-68
2023/06/26 11:42:12;;;;;;;10.63;2.13;;;;;;;28.43;35.71;101668.03;4997749;28;20095;-63
2023/06/26 11:44:42;;;;;;;9.32;2.20;;;;;;;28.14;35.19;101682.31;5015189;28;20029;-68
2023/06/26 11:47:12;;;;;;;6.65;2.15;;;;;;;27.66;35.47;101675.91;5015370;28;20018;-69
2023/06/26 11:49:37;;;;;;;10.10;2.30;;;;;;;27.04;34.70;101691.84;5015434;28;20033;-68